createdAt,value
2018-02-04T00:00:08.578Z,0
2018-02-04T00:01:10.996Z,0
2018-02-04T00:02:13.706Z,0
2018-02-04T00:03:16.154Z,0
2018-02-04T00:04:19.142Z,0
2018-02-04T00:05:21.566Z,0
2018-02-04T00:06:24.004Z,0
2018-02-04T00:07:26.416Z,0
2018-02-04T00:08:28.852Z,0
2018-02-04T00:09:31.283Z,0
2018-02-04T00:10:33.690Z,0
2018-02-04T00:11:36.406Z,0
2018-02-04T00:12:38.835Z,0
2018-02-04T00:13:41.259Z,0
2018-02-04T00:14:43.693Z,0
2018-02-04T00:15:46.104Z,0
2018-02-04T00:16:48.526Z,0
2018-02-04T00:17:51.234Z,0
2018-02-04T00:18:53.658Z,0
2018-02-04T00:19:56.089Z,0
2018-02-04T00:20:58.797Z,0
2018-02-04T00:22:01.504Z,0
2018-02-04T00:23:03.938Z,0
2018-02-04T00:24:06.362Z,0
2018-02-04T00:25:08.784Z,0
2018-02-04T00:26:11.488Z,0
2018-02-04T00:27:13.912Z,0
2018-02-04T00:28:16.337Z,0
2018-02-04T00:29:18.758Z,0
2018-02-04T00:30:21.467Z,0
2018-02-04T00:31:24.171Z,0
2018-02-04T00:32:26.594Z,0
2018-02-04T00:33:29.032Z,0
2018-02-04T00:34:31.452Z,0
2018-02-04T00:35:33.880Z,0
2018-02-04T00:36:36.299Z,0
2018-02-04T00:37:38.723Z,0
2018-02-04T00:38:41.153Z,0
2018-02-04T00:39:43.872Z,0
2018-02-04T00:40:46.286Z,0
2018-02-04T00:41:48.728Z,0
2018-02-04T00:42:51.148Z,0
2018-02-04T00:43:53.568Z,0
2018-02-04T00:44:56.001Z,0
2018-02-04T00:45:58.418Z,0
2018-02-04T00:47:01.154Z,0
2018-02-04T00:48:03.591Z,0
2018-02-04T00:49:06.288Z,0
2018-02-04T00:50:08.720Z,0
2018-02-04T00:51:11.428Z,0
2018-02-04T00:52:13.850Z,0
2018-02-04T00:53:16.276Z,0
2018-02-04T00:54:18.700Z,0
2018-02-04T00:55:21.127Z,0
2018-02-04T00:56:23.547Z,0
2018-02-04T00:57:26.250Z,0
2018-02-04T00:58:28.688Z,0
2018-02-04T00:59:31.412Z,0
2018-02-04T01:00:34.130Z,0
2018-02-04T01:01:36.552Z,0
2018-02-04T01:02:39.552Z,0
2018-02-04T01:03:41.979Z,0
2018-02-04T01:04:44.405Z,0
2018-02-04T01:05:46.823Z,0
2018-02-04T01:06:49.249Z,0
2018-02-04T01:07:51.971Z,0
2018-02-04T01:08:54.399Z,0
2018-02-04T01:09:56.821Z,0
2018-02-04T01:10:59.246Z,0
2018-02-04T01:12:01.665Z,0
2018-02-04T01:13:04.100Z,0
2018-02-04T01:14:06.524Z,0
2018-02-04T01:15:08.943Z,0
2018-02-04T01:16:11.374Z,0
2018-02-04T01:17:13.798Z,0
2018-02-04T01:18:16.223Z,0
2018-02-04T01:19:18.656Z,0
2018-02-04T01:20:21.076Z,0
2018-02-04T01:21:23.502Z,0
2018-02-04T01:22:25.926Z,0
2018-02-04T01:23:28.638Z,0
2018-02-04T01:24:31.051Z,0
2018-02-04T01:25:33.474Z,0
2018-02-04T01:26:35.908Z,0
2018-02-04T01:27:38.329Z,0
2018-02-04T01:28:40.752Z,0
2018-02-04T01:29:43.177Z,0
2018-02-04T01:30:45.597Z,0
2018-02-04T01:31:48.025Z,0
2018-02-04T01:32:50.464Z,0
2018-02-04T01:33:52.871Z,0
2018-02-04T01:34:55.303Z,0
2018-02-04T01:35:57.731Z,0
2018-02-04T01:37:00.444Z,0
2018-02-04T01:38:02.868Z,0
2018-02-04T01:39:05.301Z,0
2018-02-04T01:40:07.719Z,0
2018-02-04T01:41:10.158Z,0
2018-02-04T01:42:12.574Z,0
2018-02-04T01:43:15.004Z,0
2018-02-04T01:44:17.426Z,0
2018-02-04T01:45:19.854Z,0
2018-02-04T01:46:22.279Z,0
2018-02-04T01:47:24.709Z,0
2018-02-04T01:48:27.129Z,0
2018-02-04T01:49:29.556Z,0
2018-02-04T01:50:32.265Z,0
2018-02-04T01:51:34.690Z,0
2018-02-04T01:52:37.110Z,0
2018-02-04T01:53:39.545Z,0
2018-02-04T01:54:41.974Z,0
2018-02-04T01:55:44.393Z,0
2018-02-04T01:56:46.819Z,0
2018-02-04T01:57:49.252Z,0
2018-02-04T01:58:51.672Z,0
2018-02-04T01:59:54.091Z,0
2018-02-04T02:00:56.516Z,0
2018-02-04T02:01:58.937Z,0
2018-02-04T02:03:01.372Z,0
2018-02-04T02:04:03.803Z,0
2018-02-04T02:05:06.492Z,0
2018-02-04T02:06:08.931Z,0
2018-02-04T02:07:11.639Z,0
2018-02-04T02:08:14.056Z,0
2018-02-04T02:09:16.766Z,0
2018-02-04T02:10:19.190Z,0
2018-02-04T02:11:21.616Z,0
2018-02-04T02:12:24.045Z,0
2018-02-04T02:13:26.468Z,0
2018-02-04T02:14:29.220Z,0
2018-02-04T02:15:31.634Z,0
2018-02-04T02:16:34.059Z,0
2018-02-04T02:17:36.761Z,0
2018-02-04T02:18:39.184Z,0
2018-02-04T02:19:41.604Z,0
2018-02-04T02:20:44.034Z,0
2018-02-04T02:21:46.452Z,0
2018-02-04T02:22:48.882Z,0
2018-02-04T02:23:51.305Z,0
2018-02-04T02:24:53.739Z,0
2018-02-04T02:25:56.171Z,0
2018-02-04T02:26:58.590Z,0
2018-02-04T02:28:01.014Z,0
2018-02-04T02:29:03.451Z,0
2018-02-04T02:30:05.886Z,0
2018-02-04T02:31:08.313Z,0
2018-02-04T02:32:10.735Z,0
2018-02-04T02:33:13.163Z,0
2018-02-04T02:34:15.591Z,0
2018-02-04T02:35:18.300Z,0
2018-02-04T02:36:20.998Z,0
2018-02-04T02:37:23.420Z,0
2018-02-04T02:38:26.133Z,0
2018-02-04T02:39:28.547Z,0
2018-02-04T02:40:30.988Z,0
2018-02-04T02:41:33.419Z,0
2018-02-04T02:42:35.842Z,0
2018-02-04T02:43:38.269Z,0
2018-02-04T02:44:40.692Z,0
2018-02-04T02:45:43.113Z,0
2018-02-04T02:46:45.554Z,0
2018-02-04T02:47:47.965Z,0
2018-02-04T02:48:50.391Z,0
2018-02-04T02:49:52.824Z,0
2018-02-04T02:50:55.246Z,0
2018-02-04T02:51:57.672Z,0
2018-02-04T02:53:00.105Z,0
2018-02-04T02:54:02.526Z,0
2018-02-04T02:55:05.548Z,0
2018-02-04T02:56:07.966Z,0
2018-02-04T02:57:10.389Z,0
2018-02-04T02:58:12.812Z,0
2018-02-04T02:59:15.234Z,0
2018-02-04T03:00:17.663Z,0
2018-02-04T03:01:20.089Z,0
2018-02-04T03:02:22.517Z,0
2018-02-04T03:03:24.948Z,0
2018-02-04T03:04:27.368Z,0
2018-02-04T03:05:29.800Z,0
2018-02-04T03:06:32.222Z,0
2018-02-04T03:07:34.641Z,0
2018-02-04T03:08:37.340Z,0
2018-02-04T03:09:40.334Z,0
2018-02-04T03:10:42.755Z,0
2018-02-04T03:11:45.184Z,0
2018-02-04T03:12:47.614Z,0
2018-02-04T03:13:50.595Z,0
2018-02-04T03:14:53.026Z,0
2018-02-04T03:15:55.450Z,0
2018-02-04T03:16:57.885Z,0
2018-02-04T03:18:00.308Z,0
2018-02-04T03:19:02.739Z,0
2018-02-04T03:20:05.162Z,0
2018-02-04T03:21:07.597Z,0
2018-02-04T03:22:10.021Z,0
2018-02-04T03:23:12.435Z,0
2018-02-04T03:24:14.862Z,0
2018-02-04T03:25:17.292Z,0
2018-02-04T03:26:19.712Z,0
2018-02-04T03:27:22.128Z,0
2018-02-04T03:28:24.560Z,0
2018-02-04T03:29:26.983Z,0
2018-02-04T03:30:29.978Z,0
2018-02-04T03:31:32.400Z,0
2018-02-04T03:32:35.106Z,0
2018-02-04T03:33:37.525Z,0
2018-02-04T03:34:39.963Z,0
2018-02-04T03:35:42.673Z,0
2018-02-04T03:36:45.099Z,0
2018-02-04T03:37:47.525Z,0
2018-02-04T03:38:49.939Z,0
2018-02-04T03:39:52.369Z,0
2018-02-04T03:40:55.071Z,0
2018-02-04T03:41:57.497Z,0
2018-02-04T03:42:59.933Z,0
2018-02-04T03:44:02.346Z,0
2018-02-04T03:45:04.763Z,0
2018-02-04T03:46:07.199Z,0
2018-02-04T03:47:09.615Z,0
2018-02-04T03:48:12.041Z,0
2018-02-04T03:49:14.469Z,0
2018-02-04T03:50:16.892Z,0
2018-02-04T03:51:19.315Z,0
2018-02-04T03:52:21.739Z,0
2018-02-04T03:53:24.154Z,0
2018-02-04T03:54:26.586Z,0
2018-02-04T03:55:29.004Z,0
2018-02-04T03:56:31.430Z,0
2018-02-04T03:57:33.855Z,0
2018-02-04T03:58:37.119Z,0
2018-02-04T03:59:39.833Z,0
2018-02-04T04:00:42.261Z,0
2018-02-04T04:01:44.680Z,0
2018-02-04T04:02:47.104Z,0
2018-02-04T04:03:49.527Z,0
2018-02-04T04:04:51.953Z,0
2018-02-04T04:05:54.374Z,0
2018-02-04T04:06:57.115Z,0
2018-02-04T04:07:59.534Z,0
2018-02-04T04:09:01.960Z,0
2018-02-04T04:10:04.391Z,0
2018-02-04T04:11:06.804Z,0
2018-02-04T04:12:09.230Z,0
2018-02-04T04:13:11.672Z,0
2018-02-04T04:14:14.097Z,0
2018-02-04T04:15:16.522Z,0
2018-02-04T04:16:19.544Z,0
2018-02-04T04:17:21.962Z,0
2018-02-04T04:18:24.398Z,0
2018-02-04T04:19:26.828Z,0
2018-02-04T04:20:29.238Z,0
2018-02-04T04:21:31.663Z,0
2018-02-04T04:22:34.083Z,0
2018-02-04T04:23:36.793Z,0
2018-02-04T04:24:39.215Z,0
2018-02-04T04:25:41.655Z,0
2018-02-04T04:26:44.072Z,0
2018-02-04T04:27:46.806Z,0
2018-02-04T04:28:49.234Z,0
2018-02-04T04:29:51.648Z,0
2018-02-04T04:30:54.075Z,0
2018-02-04T04:31:56.501Z,0
2018-02-04T04:32:58.916Z,0
2018-02-04T04:34:01.353Z,0
2018-02-04T04:35:04.061Z,0
2018-02-04T04:36:06.498Z,0
2018-02-04T04:37:09.206Z,0
2018-02-04T04:38:11.633Z,0
2018-02-04T04:39:14.058Z,0
2018-02-04T04:40:16.489Z,0
2018-02-04T04:41:18.915Z,0
2018-02-04T04:42:21.342Z,0
2018-02-04T04:43:23.757Z,0
2018-02-04T04:44:26.189Z,0
2018-02-04T04:45:28.602Z,0
2018-02-04T04:46:31.030Z,0
2018-02-04T04:47:33.448Z,0
2018-02-04T04:48:35.886Z,0
2018-02-04T04:49:38.581Z,0
2018-02-04T04:50:41.008Z,0
2018-02-04T04:51:43.419Z,0
2018-02-04T04:52:45.850Z,0
2018-02-04T04:53:48.275Z,0
2018-02-04T04:54:50.697Z,0
2018-02-04T04:55:53.128Z,0
2018-02-04T04:56:55.554Z,0
2018-02-04T04:57:57.982Z,0
2018-02-04T04:59:00.679Z,0
2018-02-04T05:00:03.118Z,0
2018-02-04T05:01:05.532Z,0
2018-02-04T05:02:07.962Z,0
2018-02-04T05:03:10.393Z,0
2018-02-04T05:04:12.817Z,0
2018-02-04T05:05:15.542Z,0
2018-02-04T05:06:17.979Z,0
2018-02-04T05:07:20.406Z,0
2018-02-04T05:08:22.841Z,0
2018-02-04T05:09:25.261Z,0
2018-02-04T05:10:28.033Z,0
2018-02-04T05:11:30.450Z,0
2018-02-04T05:12:32.874Z,0
2018-02-04T05:13:35.295Z,0
2018-02-04T05:14:37.719Z,0
2018-02-04T05:15:40.129Z,0
2018-02-04T05:16:42.553Z,0
2018-02-04T05:17:44.980Z,0
2018-02-04T05:18:47.709Z,0
2018-02-04T05:19:50.129Z,0
2018-02-04T05:20:52.561Z,0
2018-02-04T05:21:55.264Z,0
2018-02-04T05:22:57.976Z,0
2018-02-04T05:24:00.387Z,0
2018-02-04T05:25:02.821Z,0
2018-02-04T05:26:05.238Z,0
2018-02-04T05:27:07.668Z,0
2018-02-04T05:28:10.094Z,0
2018-02-04T05:29:12.514Z,0
2018-02-04T05:30:14.944Z,0
2018-02-04T05:31:17.371Z,0
2018-02-04T05:32:19.793Z,0
2018-02-04T05:33:22.216Z,0
2018-02-04T05:34:24.651Z,0
2018-02-04T05:35:27.077Z,0
2018-02-04T05:36:29.496Z,0
2018-02-04T05:37:31.925Z,0
2018-02-04T05:38:34.347Z,0
2018-02-04T05:39:36.774Z,0
2018-02-04T05:40:39.195Z,0
2018-02-04T05:41:41.610Z,0
2018-02-04T05:42:44.036Z,0
2018-02-04T05:43:46.466Z,0
2018-02-04T05:44:48.890Z,0
2018-02-04T05:45:51.311Z,0
2018-02-04T05:46:53.731Z,0
2018-02-04T05:47:56.154Z,0
2018-02-04T05:48:58.583Z,0
2018-02-04T05:50:01.011Z,0
2018-02-04T05:51:03.419Z,0
2018-02-04T05:52:06.138Z,0
2018-02-04T05:53:08.549Z,0
2018-02-04T05:54:10.980Z,0
2018-02-04T05:55:13.401Z,0
2018-02-04T05:56:15.819Z,0
2018-02-04T05:57:18.248Z,0
2018-02-04T05:58:20.666Z,0
2018-02-04T05:59:23.082Z,0
2018-02-04T06:00:25.522Z,0
2018-02-04T06:01:28.239Z,0
2018-02-04T06:02:30.658Z,0
2018-02-04T06:03:33.370Z,0
2018-02-04T06:04:35.796Z,0
2018-02-04T06:05:38.212Z,0
2018-02-04T06:06:40.932Z,0
2018-02-04T06:07:43.655Z,0
2018-02-04T06:08:46.364Z,0
2018-02-04T06:09:49.065Z,0
2018-02-04T06:10:51.483Z,0
2018-02-04T06:11:54.187Z,0
2018-02-04T06:12:56.604Z,0
2018-02-04T06:13:59.053Z,0
2018-02-04T06:15:01.446Z,0
2018-02-04T06:16:03.867Z,4
2018-02-04T06:17:06.572Z,4
2018-02-04T06:18:09.001Z,0
2018-02-04T06:19:11.429Z,4
2018-02-04T06:20:13.848Z,4
2018-02-04T06:21:16.270Z,4
2018-02-04T06:22:18.692Z,4
2018-02-04T06:23:21.403Z,4
2018-02-04T06:24:23.815Z,8
2018-02-04T06:25:26.249Z,8
2018-02-04T06:26:28.961Z,12
2018-02-04T06:27:31.394Z,12
2018-02-04T06:28:33.815Z,12
2018-02-04T06:29:36.531Z,16
2018-02-04T06:30:38.952Z,20
2018-02-04T06:31:41.384Z,20
2018-02-04T06:32:43.805Z,24
2018-02-04T06:33:46.221Z,32
2018-02-04T06:34:48.643Z,36
2018-02-04T06:35:51.058Z,40
2018-02-04T06:36:54.048Z,44
2018-02-04T06:37:56.478Z,56
2018-02-04T06:38:58.883Z,64
2018-02-04T06:40:01.602Z,72
2018-02-04T06:41:04.025Z,80
2018-02-04T06:42:06.445Z,92
2018-02-04T06:43:08.875Z,104
2018-02-04T06:44:11.297Z,116
2018-02-04T06:45:13.724Z,128
2018-02-04T06:46:16.156Z,140
2018-02-04T06:47:18.569Z,160
2018-02-04T06:48:20.992Z,172
2018-02-04T06:49:23.411Z,192
2018-02-04T06:50:26.155Z,212
2018-02-04T06:51:28.549Z,236
2018-02-04T06:52:30.972Z,260
2018-02-04T06:53:33.415Z,284
2018-02-04T06:54:36.132Z,308
2018-02-04T06:55:38.553Z,336
2018-02-04T06:56:40.972Z,360
2018-02-04T06:57:43.694Z,392
2018-02-04T06:58:46.106Z,420
2018-02-04T06:59:48.531Z,452
2018-02-04T07:00:51.233Z,480
2018-02-04T07:01:53.956Z,512
2018-02-04T07:02:56.374Z,552
2018-02-04T07:03:59.086Z,592
2018-02-04T07:05:01.782Z,628
2018-02-04T07:06:04.500Z,664
2018-02-04T07:07:06.915Z,704
2018-02-04T07:08:09.345Z,752
2018-02-04T07:09:12.047Z,792
2018-02-04T07:10:14.472Z,836
2018-02-04T07:11:16.892Z,872
2018-02-04T07:12:19.332Z,912
2018-02-04T07:13:21.743Z,956
2018-02-04T07:14:24.177Z,1000
2018-02-04T07:15:26.602Z,1036
2018-02-04T07:16:29.022Z,1084
2018-02-04T07:17:31.453Z,1124
2018-02-04T07:18:33.873Z,1156
2018-02-04T07:19:36.288Z,1176
2018-02-04T07:20:38.720Z,1216
2018-02-04T07:21:41.424Z,1376
2018-02-04T07:22:43.851Z,1240
2018-02-04T07:23:46.278Z,1128
2018-02-04T07:24:48.702Z,1056
2018-02-04T07:25:51.129Z,1040
2018-02-04T07:26:53.555Z,1060
2018-02-04T07:27:55.976Z,1116
2018-02-04T07:28:58.396Z,1116
2018-02-04T07:30:00.814Z,1116
2018-02-04T07:31:03.246Z,1196
2018-02-04T07:32:05.671Z,1196
2018-02-04T07:33:08.086Z,1220
2018-02-04T07:34:10.513Z,1276
2018-02-04T07:35:12.934Z,1356
2018-02-04T07:36:15.354Z,1424
2018-02-04T07:37:17.792Z,1488
2018-02-04T07:38:20.202Z,1520
2018-02-04T07:39:22.627Z,1536
2018-02-04T07:40:25.052Z,1584
2018-02-04T07:41:27.473Z,1636
2018-02-04T07:42:29.903Z,1676
2018-02-04T07:43:32.323Z,1712
2018-02-04T07:44:34.750Z,1756
2018-02-04T07:45:37.181Z,1820
2018-02-04T07:46:39.604Z,1888
2018-02-04T07:47:42.020Z,1916
2018-02-04T07:48:44.450Z,1932
2018-02-04T07:49:46.875Z,1992
2018-02-04T07:50:49.298Z,2052
2018-02-04T07:51:51.721Z,2128
2018-02-04T07:52:54.153Z,2216
2018-02-04T07:53:56.571Z,2264
2018-02-04T07:54:59.000Z,2316
2018-02-04T07:56:01.435Z,2372
2018-02-04T07:57:03.844Z,2456
2018-02-04T07:58:06.281Z,2496
2018-02-04T07:59:08.704Z,2512
2018-02-04T08:00:11.134Z,2580
2018-02-04T08:01:13.558Z,2648
2018-02-04T08:02:15.989Z,2728
2018-02-04T08:03:18.405Z,2900
2018-02-04T08:04:20.842Z,3172
2018-02-04T08:05:23.266Z,3440
2018-02-04T08:06:25.688Z,3660
2018-02-04T08:07:28.400Z,3756
2018-02-04T08:08:30.830Z,3824
2018-02-04T08:09:33.541Z,3904
2018-02-04T08:10:35.975Z,3988
2018-02-04T08:11:38.400Z,4048
2018-02-04T08:12:40.882Z,4088
2018-02-04T08:13:43.256Z,4124
2018-02-04T08:14:45.689Z,4220
2018-02-04T08:15:48.106Z,4304
2018-02-04T08:16:50.536Z,4360
2018-02-04T08:17:52.968Z,4432
2018-02-04T08:18:55.404Z,4476
2018-02-04T08:19:57.831Z,4488
2018-02-04T08:21:00.238Z,4296
2018-02-04T08:22:02.940Z,3900
2018-02-04T08:23:05.371Z,3608
2018-02-04T08:24:08.077Z,3508
2018-02-04T08:25:10.504Z,3368
2018-02-04T08:26:12.922Z,3016
2018-02-04T08:27:15.352Z,2532
2018-02-04T08:28:18.073Z,2240
2018-02-04T08:29:20.498Z,2096
2018-02-04T08:30:22.926Z,1996
2018-02-04T08:31:25.355Z,1908
2018-02-04T08:32:27.785Z,1888
2018-02-04T08:33:30.208Z,1924
2018-02-04T08:34:32.922Z,1944
2018-02-04T08:35:35.335Z,1940
2018-02-04T08:36:37.756Z,1964
2018-02-04T08:37:40.189Z,1888
2018-02-04T08:38:42.610Z,1932
2018-02-04T08:39:45.344Z,1884
2018-02-04T08:40:47.769Z,1820
2018-02-04T08:41:50.192Z,1852
2018-02-04T08:42:52.630Z,1900
2018-02-04T08:43:55.064Z,1776
2018-02-04T08:44:57.473Z,1760
2018-02-04T08:45:59.900Z,1804
2018-02-04T08:47:02.334Z,1844
2018-02-04T08:48:04.750Z,1876
2018-02-04T08:49:07.184Z,2000
2018-02-04T08:50:09.606Z,2196
2018-02-04T08:51:12.031Z,2176
2018-02-04T08:52:14.450Z,2064
2018-02-04T08:53:16.870Z,1940
2018-02-04T08:54:19.310Z,1916
2018-02-04T08:55:22.018Z,1960
2018-02-04T08:56:24.440Z,1868
2018-02-04T08:57:26.871Z,1664
2018-02-04T08:58:29.605Z,1456
2018-02-04T08:59:32.323Z,1384
2018-02-04T09:00:34.749Z,1432
2018-02-04T09:01:37.179Z,1456
2018-02-04T09:02:39.585Z,1328
2018-02-04T09:03:42.020Z,1328
2018-02-04T09:04:44.433Z,1312
2018-02-04T09:05:46.868Z,1208
2018-02-04T09:06:49.292Z,1228
2018-02-04T09:07:51.710Z,1256
2018-02-04T09:08:54.147Z,1252
2018-02-04T09:09:56.568Z,1276
2018-02-04T09:10:59.265Z,1440
2018-02-04T09:12:01.698Z,1828
2018-02-04T09:13:04.131Z,2140
2018-02-04T09:14:06.548Z,2240
2018-02-04T09:15:08.979Z,2216
2018-02-04T09:16:11.397Z,2204
2018-02-04T09:17:14.109Z,2424
2018-02-04T09:18:16.835Z,2976
2018-02-04T09:19:19.255Z,3048
2018-02-04T09:20:21.663Z,2992
2018-02-04T09:21:24.101Z,3096
2018-02-04T09:22:26.523Z,3216
2018-02-04T09:23:28.948Z,3184
2018-02-04T09:24:31.375Z,3412
2018-02-04T09:25:34.089Z,3924
2018-02-04T09:26:36.514Z,3944
2018-02-04T09:27:38.950Z,4000
2018-02-04T09:28:41.372Z,4392
2018-02-04T09:29:43.791Z,5104
2018-02-04T09:30:46.221Z,5776
2018-02-04T09:31:48.647Z,5788
2018-02-04T09:32:51.070Z,5696
2018-02-04T09:33:53.503Z,5832
2018-02-04T09:34:55.923Z,5880
2018-02-04T09:35:58.352Z,5388
2018-02-04T09:37:00.776Z,4960
2018-02-04T09:38:03.483Z,4456
2018-02-04T09:39:06.192Z,3976
2018-02-04T09:40:08.624Z,3908
2018-02-04T09:41:11.038Z,4176
2018-02-04T09:42:13.480Z,4520
2018-02-04T09:43:15.903Z,5080
2018-02-04T09:44:18.335Z,5660
2018-02-04T09:45:20.766Z,6156
2018-02-04T09:46:23.189Z,6416
2018-02-04T09:47:25.616Z,6792
2018-02-04T09:48:28.045Z,6856
2018-02-04T09:49:30.464Z,6484
2018-02-04T09:50:32.902Z,6080
2018-02-04T09:51:35.316Z,6028
2018-02-04T09:52:37.750Z,5568
2018-02-04T09:53:40.176Z,5116
2018-02-04T09:54:42.594Z,5056
2018-02-04T09:55:45.027Z,5384
2018-02-04T09:56:47.449Z,5848
2018-02-04T09:57:49.871Z,6152
2018-02-04T09:58:52.587Z,5920
2018-02-04T09:59:55.020Z,5652
2018-02-04T10:00:57.435Z,5380
2018-02-04T10:01:59.868Z,5132
2018-02-04T10:03:02.295Z,4904
2018-02-04T10:04:05.007Z,5208
2018-02-04T10:05:07.438Z,6124
2018-02-04T10:06:10.136Z,7888
2018-02-04T10:07:12.853Z,9140
2018-02-04T10:08:15.572Z,9496
2018-02-04T10:09:18.564Z,8724
2018-02-04T10:10:20.983Z,7112
2018-02-04T10:11:23.407Z,6040
2018-02-04T10:12:25.838Z,5764
2018-02-04T10:13:28.276Z,5952
2018-02-04T10:14:31.043Z,6716
2018-02-04T10:15:33.465Z,7156
2018-02-04T10:16:35.886Z,7312
2018-02-04T10:17:38.334Z,7308
2018-02-04T10:18:40.756Z,7288
2018-02-04T10:19:43.187Z,7360
2018-02-04T10:20:45.615Z,7200
2018-02-04T10:21:48.051Z,7276
2018-02-04T10:22:50.749Z,7228
2018-02-04T10:23:53.169Z,7104
2018-02-04T10:24:55.899Z,6720
2018-02-04T10:25:58.321Z,6552
2018-02-04T10:27:00.744Z,6496
2018-02-04T10:28:03.466Z,6388
2018-02-04T10:29:06.193Z,6320
2018-02-04T10:30:08.628Z,6380
2018-02-04T10:31:11.643Z,6364
2018-02-04T10:32:20.321Z,5916
2018-02-04T10:33:22.675Z,5852
2018-02-04T10:34:25.350Z,5608
2018-02-04T10:35:27.723Z,5784
2018-02-04T10:36:30.090Z,5620
2018-02-04T10:37:32.468Z,5316
2018-02-04T10:38:35.118Z,4992
2018-02-04T10:39:37.497Z,4748
2018-02-04T10:40:39.866Z,5072
2018-02-04T10:41:42.230Z,6324
2018-02-04T10:42:44.886Z,7100
2018-02-04T10:43:47.263Z,7396
2018-02-04T10:44:49.634Z,7736
2018-02-04T10:45:52.280Z,7568
2018-02-04T10:46:54.657Z,7056
2018-02-04T10:48:16.248Z,6836
2018-02-04T10:49:18.674Z,6712
2018-02-04T10:50:21.377Z,6600
2018-02-04T10:51:23.816Z,6348
2018-02-04T10:52:26.243Z,6052
2018-02-04T10:53:28.665Z,6024
2018-02-04T10:54:31.091Z,6240
2018-02-04T10:55:33.516Z,6548
2018-02-04T10:56:35.938Z,6680
2018-02-04T10:57:38.372Z,7572
2018-02-04T10:58:40.782Z,7900
2018-02-04T10:59:43.203Z,7664
2018-02-04T11:00:45.637Z,8084
2018-02-04T11:01:48.053Z,8572
2018-02-04T11:02:50.485Z,9256
2018-02-04T11:03:52.911Z,9084
2018-02-04T11:04:55.336Z,9100
2018-02-04T11:05:57.775Z,9032
2018-02-04T11:07:00.196Z,9708
2018-02-04T11:08:02.618Z,10536
2018-02-04T11:09:05.330Z,10844
2018-02-04T11:10:07.757Z,9576
2018-02-04T11:11:10.186Z,8376
2018-02-04T11:12:12.918Z,7988
2018-02-04T11:13:15.335Z,7456
2018-02-04T11:14:17.758Z,7012
2018-02-04T11:15:20.189Z,6960
2018-02-04T11:16:22.613Z,7128
2018-02-04T11:17:25.047Z,8120
2018-02-04T11:18:27.462Z,8364
2018-02-04T11:19:30.181Z,8852
2018-02-04T11:20:32.593Z,8908
2018-02-04T11:21:35.320Z,10324
2018-02-04T11:22:37.746Z,11072
2018-02-04T11:23:40.179Z,11080
2018-02-04T11:24:42.592Z,10884
2018-02-04T11:25:45.036Z,10364
2018-02-04T11:26:47.449Z,10080
2018-02-04T11:27:50.158Z,9772
2018-02-04T11:28:52.580Z,9528
2018-02-04T11:29:55.013Z,9404
2018-02-04T11:30:57.434Z,10700
2018-02-04T11:31:59.876Z,12144
2018-02-04T11:33:02.297Z,13008
2018-02-04T11:34:04.723Z,12040
2018-02-04T11:35:07.144Z,12208
2018-02-04T11:36:09.577Z,10788
2018-02-04T11:37:11.999Z,10368
2018-02-04T11:38:14.722Z,11904
2018-02-04T11:39:17.132Z,12664
2018-02-04T11:40:19.562Z,13792
2018-02-04T11:41:22.263Z,13872
2018-02-04T11:42:24.693Z,12044
2018-02-04T11:43:27.122Z,12300
2018-02-04T11:44:29.549Z,11400
2018-02-04T11:45:31.975Z,9908
2018-02-04T11:46:34.446Z,9808
2018-02-04T11:47:36.835Z,10296
2018-02-04T11:48:39.267Z,10768
2018-02-04T11:49:41.705Z,12076
2018-02-04T11:50:44.118Z,11632
2018-02-04T11:51:46.545Z,9648
2018-02-04T11:52:48.975Z,7800
2018-02-04T11:53:51.700Z,7356
2018-02-04T11:54:54.127Z,7168
2018-02-04T11:55:56.841Z,6292
2018-02-04T11:56:59.258Z,6956
2018-02-04T11:58:01.696Z,7640
2018-02-04T11:59:04.407Z,7680
2018-02-04T12:00:06.821Z,9664
2018-02-04T12:01:09.254Z,10316
2018-02-04T12:02:11.678Z,10156
2018-02-04T12:03:14.108Z,11352
2018-02-04T12:04:16.538Z,13672
2018-02-04T12:05:18.963Z,15432
2018-02-04T12:06:21.387Z,15320
2018-02-04T12:07:23.815Z,16360
2018-02-04T12:08:26.244Z,18060
2018-02-04T12:09:28.669Z,20064
2018-02-04T12:10:31.104Z,17852
2018-02-04T12:11:33.522Z,15740
2018-02-04T12:12:35.967Z,15700
2018-02-04T12:13:38.400Z,14588
2018-02-04T12:14:40.818Z,12696
2018-02-04T12:15:43.250Z,10612
2018-02-04T12:16:45.668Z,8264
2018-02-04T12:17:48.092Z,7272
2018-02-04T12:18:50.524Z,7612
2018-02-04T12:19:52.945Z,8828
2018-02-04T12:20:55.378Z,9764
2018-02-04T12:21:57.801Z,10340
2018-02-04T12:23:00.223Z,9952
2018-02-04T12:24:02.665Z,10512
2018-02-04T12:25:05.084Z,11640
2018-02-04T12:26:07.796Z,11396
2018-02-04T12:27:10.218Z,11480
2018-02-04T12:28:12.644Z,13384
2018-02-04T12:29:15.072Z,14304
2018-02-04T12:30:17.504Z,14236
2018-02-04T12:31:19.923Z,11624
2018-02-04T12:32:22.347Z,9272
2018-02-04T12:33:24.786Z,9060
2018-02-04T12:34:27.210Z,7852
2018-02-04T12:35:29.637Z,6924
2018-02-04T12:36:32.052Z,6796
2018-02-04T12:37:34.480Z,6908
2018-02-04T12:38:36.912Z,6984
2018-02-04T12:39:39.333Z,6840
2018-02-04T12:40:41.754Z,7304
2018-02-04T12:41:44.176Z,7044
2018-02-04T12:42:46.608Z,7524
2018-02-04T12:43:49.038Z,8196
2018-02-04T12:44:51.468Z,8196
2018-02-04T12:45:53.881Z,7468
2018-02-04T12:46:56.597Z,7020
2018-02-04T12:47:59.037Z,6444
2018-02-04T12:49:01.752Z,5196
2018-02-04T12:50:04.484Z,4256
2018-02-04T12:51:07.486Z,4076
2018-02-04T12:52:10.195Z,4192
2018-02-04T12:53:12.624Z,4196
2018-02-04T12:54:15.075Z,3908
2018-02-04T12:55:17.492Z,3804
2018-02-04T12:56:19.921Z,4096
2018-02-04T12:57:22.361Z,5016
2018-02-04T12:58:24.787Z,5228
2018-02-04T12:59:27.208Z,5136
2018-02-04T13:00:29.642Z,4964
2018-02-04T13:01:32.066Z,4800
2018-02-04T13:02:34.506Z,4288
2018-02-04T13:03:36.933Z,4028
2018-02-04T13:04:39.350Z,4524
2018-02-04T13:05:41.785Z,4700
2018-02-04T13:06:44.223Z,4212
2018-02-04T13:07:46.932Z,4008
2018-02-04T13:08:49.370Z,4216
2018-02-04T13:09:51.788Z,3900
2018-02-04T13:10:54.211Z,3672
2018-02-04T13:11:56.673Z,3332
2018-02-04T13:12:59.373Z,3088
2018-02-04T13:14:01.798Z,3032
2018-02-04T13:15:04.231Z,2892
2018-02-04T13:16:06.697Z,3040
2018-02-04T13:17:09.072Z,3944
2018-02-04T13:18:11.837Z,4176
2018-02-04T13:19:14.216Z,3916
2018-02-04T13:20:16.649Z,3776
2018-02-04T13:21:19.057Z,3592
2018-02-04T13:22:21.764Z,3200
2018-02-04T13:23:24.185Z,3540
2018-02-04T13:24:26.618Z,3760
2018-02-04T13:25:29.045Z,3676
2018-02-04T13:26:31.470Z,3940
2018-02-04T13:27:33.899Z,3812
2018-02-04T13:28:36.341Z,3608
2018-02-04T13:29:39.046Z,3508
2018-02-04T13:30:41.482Z,3396
2018-02-04T13:31:43.906Z,3436
2018-02-04T13:32:46.323Z,3156
2018-02-04T13:33:48.753Z,3236
2018-02-04T13:34:51.493Z,3236
2018-02-04T13:35:54.199Z,3164
2018-02-04T13:36:56.630Z,3248
2018-02-04T13:37:59.058Z,4080
2018-02-04T13:39:01.771Z,4220
2018-02-04T13:40:04.196Z,3856
2018-02-04T13:41:06.626Z,3692
2018-02-04T13:42:09.045Z,3976
2018-02-04T13:43:11.479Z,3672
2018-02-04T13:44:13.950Z,3456
2018-02-04T13:45:16.319Z,3156
2018-02-04T13:46:18.748Z,2772
2018-02-04T13:47:21.180Z,2716
2018-02-04T13:48:23.612Z,2408
2018-02-04T13:49:26.037Z,2248
2018-02-04T13:50:28.464Z,1800
2018-02-04T13:51:30.884Z,1916
2018-02-04T13:52:33.327Z,1984
2018-02-04T13:53:35.745Z,1952
2018-02-04T13:54:38.181Z,2244
2018-02-04T13:55:40.602Z,2220
2018-02-04T13:56:43.026Z,2280
2018-02-04T13:57:45.451Z,2576
2018-02-04T13:58:47.876Z,2936
2018-02-04T13:59:50.286Z,3552
2018-02-04T14:00:52.718Z,3552
2018-02-04T14:01:55.130Z,3476
2018-02-04T14:02:57.565Z,3404
2018-02-04T14:03:59.983Z,3356
2018-02-04T14:05:02.413Z,3300
2018-02-04T14:06:05.128Z,3020
2018-02-04T14:07:07.561Z,2624
2018-02-04T14:08:09.986Z,2440
2018-02-04T14:09:12.699Z,2288
2018-02-04T14:10:15.127Z,2336
2018-02-04T14:11:17.862Z,3276
2018-02-04T14:12:20.280Z,2584
2018-02-04T14:13:22.710Z,2684
2018-02-04T14:14:25.129Z,2700
2018-02-04T14:15:27.560Z,2444
2018-02-04T14:16:29.980Z,2676
2018-02-04T14:17:32.415Z,2676
2018-02-04T14:18:34.822Z,2908
2018-02-04T14:19:37.254Z,2840
2018-02-04T14:20:39.682Z,2920
2018-02-04T14:21:42.097Z,3352
2018-02-04T14:22:44.530Z,3544
2018-02-04T14:23:46.952Z,3404
2018-02-04T14:24:49.372Z,2996
2018-02-04T14:25:51.809Z,2460
2018-02-04T14:26:54.234Z,3028
2018-02-04T14:27:56.930Z,2384
2018-02-04T14:28:59.648Z,1868
2018-02-04T14:30:02.070Z,2376